Pleasureville, Kentucky
Current Conditions -  °F | °C
As of 11:25 AM on Tuesday 27 Jan 2015 (Local Time) from KFFT Reporting Station
Overcast Overcast  
Wind Chill: 20°   Ceiling: 12000
Heat Index: 27°   Visibility: 10mi
Dew Point: 20°   Wind: 6mph
Humidity: 75%   Direction: 60°ENE
Pressure: 30.07"   Gusts: NA
Location:  38.35°N, 85.12°W
Report Text: KFFT 271625Z AUTO 06005KT 10SM FEW015 SCT024 OVC120 M03/M07 A3007 RMK AO2 T10281067
Loading
Personal Weather Stations






























Interactive Weather Map New forecast layout! Learn more

10-Day Weather Forecast

Advertisements
Track Severe Weather on mobile